sensor_id;sensor_type;location;lat;lon;timestamp;P1;durP1;ratioP1;P2;durP2;ratioP2
38853;SDS011;24606;51.992;4.198;2022-10-30T00:04:40;12.68;;;5.43;;
38853;SDS011;24606;51.992;4.198;2022-10-30T00:09:43;11.23;;;4.35;;
38853;SDS011;24606;51.992;4.198;2022-10-30T00:14:45;10.35;;;4.60;;
38853;SDS011;24606;51.992;4.198;2022-10-30T00:19:48;8.32;;;3.50;;
38853;SDS011;24606;51.992;4.198;2022-10-30T00:29:53;7.55;;;3.70;;
38853;SDS011;24606;51.992;4.198;2022-10-30T00:34:55;9.88;;;4.55;;
38853;SDS011;24606;51.992;4.198;2022-10-30T00:39:58;20.52;;;5.78;;
38853;SDS011;24606;51.992;4.198;2022-10-30T00:45:00;7.68;;;4.07;;
38853;SDS011;24606;51.992;4.198;2022-10-30T00:50:04;16.35;;;5.53;;
38853;SDS011;24606;51.992;4.198;2022-10-30T00:55:12;6.45;;;3.00;;
38853;SDS011;24606;51.992;4.198;2022-10-30T01:00:18;5.38;;;3.17;;
38853;SDS011;24606;51.992;4.198;2022-10-30T01:05:22;6.57;;;2.78;;
38853;SDS011;24606;51.992;4.198;2022-10-30T01:10:28;10.57;;;2.90;;
38853;SDS011;24606;51.992;4.198;2022-10-30T01:15:31;4.63;;;2.60;;
38853;SDS011;24606;51.992;4.198;2022-10-30T01:26:08;6.30;;;2.53;;
38853;SDS011;24606;51.992;4.198;2022-10-30T01:31:21;9.20;;;3.60;;
38853;SDS011;24606;51.992;4.198;2022-10-30T01:36:32;5.45;;;2.63;;
38853;SDS011;24606;51.992;4.198;2022-10-30T01:41:40;8.45;;;2.92;;
38853;SDS011;24606;51.992;4.198;2022-10-30T01:46:44;5.53;;;2.97;;
38853;SDS011;24606;51.992;4.198;2022-10-30T01:51:57;5.47;;;2.65;;
38853;SDS011;24606;51.992;4.198;2022-10-30T01:57:08;4.88;;;2.50;;
38853;SDS011;24606;51.992;4.198;2022-10-30T02:02:16;8.60;;;2.72;;
38853;SDS011;24606;51.992;4.198;2022-10-30T02:07:18;4.43;;;2.97;;
38853;SDS011;24606;51.992;4.198;2022-10-30T02:12:21;8.80;;;2.70;;
38853;SDS011;24606;51.992;4.198;2022-10-30T02:17:25;21.55;;;5.95;;
38853;SDS011;24606;51.992;4.198;2022-10-30T02:22:29;10.48;;;3.28;;
38853;SDS011;24606;51.992;4.198;2022-10-30T02:27:31;3.55;;;2.10;;
38853;SDS011;24606;51.992;4.198;2022-10-30T02:32:33;6.03;;;2.95;;
38853;SDS011;24606;51.992;4.198;2022-10-30T02:42:38;5.07;;;2.45;;
38853;SDS011;24606;51.992;4.198;2022-10-30T02:47:40;4.35;;;2.53;;
38853;SDS011;24606;51.992;4.198;2022-10-30T02:52:44;4.28;;;2.78;;
38853;SDS011;24606;51.992;4.198;2022-10-30T02:57:45;5.75;;;2.80;;
38853;SDS011;24606;51.992;4.198;2022-10-30T03:02:47;4.00;;;2.72;;
38853;SDS011;24606;51.992;4.198;2022-10-30T03:07:55;4.75;;;2.50;;
38853;SDS011;24606;51.992;4.198;2022-10-30T03:12:57;5.10;;;2.88;;
38853;SDS011;24606;51.992;4.198;2022-10-30T03:17:59;5.20;;;2.28;;
38853;SDS011;24606;51.992;4.198;2022-10-30T03:23:02;5.57;;;2.30;;
38853;SDS011;24606;51.992;4.198;2022-10-30T03:28:04;3.22;;;2.15;;
38853;SDS011;24606;51.992;4.198;2022-10-30T03:33:06;3.28;;;2.20;;
38853;SDS011;24606;51.992;4.198;2022-10-30T03:38:09;4.88;;;2.60;;
38853;SDS011;24606;51.992;4.198;2022-10-30T03:43:11;4.28;;;2.17;;
38853;SDS011;24606;51.992;4.198;2022-10-30T03:48:13;2.05;;;1.85;;
38853;SDS011;24606;51.992;4.198;2022-10-30T03:53:16;4.95;;;2.75;;
38853;SDS011;24606;51.992;4.198;2022-10-30T03:58:18;5.35;;;2.22;;
38853;SDS011;24606;51.992;4.198;2022-10-30T04:03:20;5.85;;;2.53;;
38853;SDS011;24606;51.992;4.198;2022-10-30T04:08:23;3.45;;;2.63;;
38853;SDS011;24606;51.992;4.198;2022-10-30T04:13:25;6.63;;;3.00;;
38853;SDS011;24606;51.992;4.198;2022-10-30T04:18:27;6.10;;;3.15;;
38853;SDS011;24606;51.992;4.198;2022-10-30T04:23:31;6.68;;;2.40;;
38853;SDS011;24606;51.992;4.198;2022-10-30T04:28:33;6.00;;;2.53;;
38853;SDS011;24606;51.992;4.198;2022-10-30T04:33:34;5.28;;;2.25;;
38853;SDS011;24606;51.992;4.198;2022-10-30T04:38:37;6.47;;;3.72;;
38853;SDS011;24606;51.992;4.198;2022-10-30T04:43:39;3.35;;;2.25;;
38853;SDS011;24606;51.992;4.198;2022-10-30T04:48:41;4.25;;;2.35;;
38853;SDS011;24606;51.992;4.198;2022-10-30T04:53:44;4.18;;;2.35;;
38853;SDS011;24606;51.992;4.198;2022-10-30T04:58:47;4.43;;;2.50;;
38853;SDS011;24606;51.992;4.198;2022-10-30T05:03:49;5.50;;;2.50;;
38853;SDS011;24606;51.992;4.198;2022-10-30T05:08:52;5.75;;;2.67;;
38853;SDS011;24606;51.992;4.198;2022-10-30T05:13:54;4.15;;;2.65;;
38853;SDS011;24606;51.992;4.198;2022-10-30T05:18:56;3.58;;;2.40;;
38853;SDS011;24606;51.992;4.198;2022-10-30T05:24:00;6.75;;;2.33;;
38853;SDS011;24606;51.992;4.198;2022-10-30T05:29:02;4.30;;;2.65;;
38853;SDS011;24606;51.992;4.198;2022-10-30T05:34:04;4.75;;;3.25;;
38853;SDS011;24606;51.992;4.198;2022-10-30T05:39:07;4.60;;;2.38;;
38853;SDS011;24606;51.992;4.198;2022-10-30T05:44:09;5.22;;;2.58;;
38853;SDS011;24606;51.992;4.198;2022-10-30T05:49:11;6.03;;;2.53;;
38853;SDS011;24606;51.992;4.198;2022-10-30T05:54:14;6.60;;;2.90;;
38853;SDS011;24606;51.992;4.198;2022-10-30T05:59:16;6.88;;;3.08;;
38853;SDS011;24606;51.992;4.198;2022-10-30T06:04:18;5.57;;;3.13;;
38853;SDS011;24606;51.992;4.198;2022-10-30T06:09:21;3.95;;;2.45;;
38853;SDS011;24606;51.992;4.198;2022-10-30T06:14:23;5.60;;;3.03;;
38853;SDS011;24606;51.992;4.198;2022-10-30T06:19:25;4.20;;;2.38;;
38853;SDS011;24606;51.992;4.198;2022-10-30T06:24:28;5.20;;;1.98;;
38853;SDS011;24606;51.992;4.198;2022-10-30T06:29:30;5.40;;;2.65;;
38853;SDS011;24606;51.992;4.198;2022-10-30T06:34:32;4.88;;;2.90;;
38853;SDS011;24606;51.992;4.198;2022-10-30T06:39:35;5.20;;;3.25;;
38853;SDS011;24606;51.992;4.198;2022-10-30T06:44:37;4.22;;;2.50;;
38853;SDS011;24606;51.992;4.198;2022-10-30T06:49:39;5.65;;;2.85;;
38853;SDS011;24606;51.992;4.198;2022-10-30T06:54:43;5.85;;;2.65;;
38853;SDS011;24606;51.992;4.198;2022-10-30T06:59:44;3.97;;;2.65;;
38853;SDS011;24606;51.992;4.198;2022-10-30T07:04:46;12.10;;;4.50;;
38853;SDS011;24606;51.992;4.198;2022-10-30T07:09:50;4.90;;;2.40;;
38853;SDS011;24606;51.992;4.198;2022-10-30T07:14:51;7.70;;;2.38;;
38853;SDS011;24606;51.992;4.198;2022-10-30T07:19:53;5.10;;;2.45;;
38853;SDS011;24606;51.992;4.198;2022-10-30T07:24:56;3.42;;;2.53;;
38853;SDS011;24606;51.992;4.198;2022-10-30T07:29:58;4.47;;;2.72;;
38853;SDS011;24606;51.992;4.198;2022-10-30T07:35:00;3.30;;;2.50;;
38853;SDS011;24606;51.992;4.198;2022-10-30T07:40:04;3.35;;;2.40;;
38853;SDS011;24606;51.992;4.198;2022-10-30T07:45:07;3.92;;;2.30;;
38853;SDS011;24606;51.992;4.198;2022-10-30T07:50:09;3.80;;;2.70;;
38853;SDS011;24606;51.992;4.198;2022-10-30T07:55:13;3.78;;;2.25;;
38853;SDS011;24606;51.992;4.198;2022-10-30T08:00:15;5.20;;;2.40;;
38853;SDS011;24606;51.992;4.198;2022-10-30T08:05:17;5.60;;;2.65;;
38853;SDS011;24606;51.992;4.198;2022-10-30T08:10:20;3.20;;;2.80;;
38853;SDS011;24606;51.992;4.198;2022-10-30T08:15:23;6.38;;;2.83;;
38853;SDS011;24606;51.992;4.198;2022-10-30T08:25:28;3.92;;;2.53;;
38853;SDS011;24606;51.992;4.198;2022-10-30T08:30:31;6.70;;;2.65;;
38853;SDS011;24606;51.992;4.198;2022-10-30T08:35:34;6.15;;;2.50;;
38853;SDS011;24606;51.992;4.198;2022-10-30T08:40:37;5.90;;;2.60;;
38853;SDS011;24606;51.992;4.198;2022-10-30T08:45:39;4.68;;;2.75;;
38853;SDS011;24606;51.992;4.198;2022-10-30T08:50:42;7.28;;;3.00;;
38853;SDS011;24606;51.992;4.198;2022-10-30T08:55:45;8.13;;;2.67;;
38853;SDS011;24606;51.992;4.198;2022-10-30T09:00:47;3.47;;;2.40;;
38853;SDS011;24606;51.992;4.198;2022-10-30T09:05:48;10.18;;;2.65;;
38853;SDS011;24606;51.992;4.198;2022-10-30T09:10:54;8.20;;;2.38;;
38853;SDS011;24606;51.992;4.198;2022-10-30T09:15:58;5.93;;;2.60;;
38853;SDS011;24606;51.992;4.198;2022-10-30T09:21:00;5.78;;;2.85;;
38853;SDS011;24606;51.992;4.198;2022-10-30T09:26:04;2.97;;;2.30;;
38853;SDS011;24606;51.992;4.198;2022-10-30T09:31:06;8.48;;;3.13;;
38853;SDS011;24606;51.992;4.198;2022-10-30T09:36:08;4.30;;;2.50;;
38853;SDS011;24606;51.992;4.198;2022-10-30T09:41:19;10.27;;;2.80;;
38853;SDS011;24606;51.992;4.198;2022-10-30T09:46:39;6.95;;;3.17;;
38853;SDS011;24606;51.992;4.198;2022-10-30T09:57:11;10.70;;;3.05;;
38853;SDS011;24606;51.992;4.198;2022-10-30T10:02:23;10.45;;;3.00;;
38853;SDS011;24606;51.992;4.198;2022-10-30T10:07:34;8.65;;;3.55;;
38853;SDS011;24606;51.992;4.198;2022-10-30T10:12:44;12.02;;;3.75;;
38853;SDS011;24606;51.992;4.198;2022-10-30T10:17:47;15.13;;;4.45;;
38853;SDS011;24606;51.992;4.198;2022-10-30T10:22:49;7.32;;;2.95;;
38853;SDS011;24606;51.992;4.198;2022-10-30T10:27:55;13.48;;;5.70;;
38853;SDS011;24606;51.992;4.198;2022-10-30T10:33:10;8.05;;;3.35;;
38853;SDS011;24606;51.992;4.198;2022-10-30T10:38:37;8.60;;;3.80;;
38853;SDS011;24606;51.992;4.198;2022-10-30T10:43:57;11.20;;;3.40;;
38853;SDS011;24606;51.992;4.198;2022-10-30T10:49:11;5.22;;;3.15;;
38853;SDS011;24606;51.992;4.198;2022-10-30T10:54:24;12.65;;;4.55;;
38853;SDS011;24606;51.992;4.198;2022-10-30T10:59:32;5.43;;;3.03;;
38853;SDS011;24606;51.992;4.198;2022-10-30T11:04:38;8.65;;;3.13;;
38853;SDS011;24606;51.992;4.198;2022-10-30T11:09:42;9.55;;;3.67;;
38853;SDS011;24606;51.992;4.198;2022-10-30T11:14:46;6.25;;;3.15;;
38853;SDS011;24606;51.992;4.198;2022-10-30T11:19:48;8.52;;;3.70;;
38853;SDS011;24606;51.992;4.198;2022-10-30T11:24:52;7.15;;;3.45;;
38853;SDS011;24606;51.992;4.198;2022-10-30T11:29:56;15.43;;;4.45;;
38853;SDS011;24606;51.992;4.198;2022-10-30T11:35:02;6.53;;;3.05;;
38853;SDS011;24606;51.992;4.198;2022-10-30T11:40:15;23.10;;;4.83;;
38853;SDS011;24606;51.992;4.198;2022-10-30T11:45:22;16.63;;;5.18;;
38853;SDS011;24606;51.992;4.198;2022-10-30T11:50:27;13.68;;;5.75;;
38853;SDS011;24606;51.992;4.198;2022-10-30T11:55:32;14.75;;;5.53;;
38853;SDS011;24606;51.992;4.198;2022-10-30T12:00:39;7.15;;;3.33;;
38853;SDS011;24606;51.992;4.198;2022-10-30T12:05:43;14.50;;;5.10;;
38853;SDS011;24606;51.992;4.198;2022-10-30T12:10:46;16.30;;;5.88;;
38853;SDS011;24606;51.992;4.198;2022-10-30T12:16:11;14.55;;;5.40;;
38853;SDS011;24606;51.992;4.198;2022-10-30T12:21:16;7.53;;;3.85;;
38853;SDS011;24606;51.992;4.198;2022-10-30T12:26:19;10.38;;;4.18;;
38853;SDS011;24606;51.992;4.198;2022-10-30T12:31:27;5.82;;;3.17;;
38853;SDS011;24606;51.992;4.198;2022-10-30T12:36:35;8.60;;;2.90;;
38853;SDS011;24606;51.992;4.198;2022-10-30T12:41:45;8.68;;;3.08;;
38853;SDS011;24606;51.992;4.198;2022-10-30T12:47:01;10.43;;;3.03;;
38853;SDS011;24606;51.992;4.198;2022-10-30T12:52:09;8.57;;;2.70;;
38853;SDS011;24606;51.992;4.198;2022-10-30T12:57:16;6.00;;;3.20;;
38853;SDS011;24606;51.992;4.198;2022-10-30T13:02:22;6.20;;;2.88;;
38853;SDS011;24606;51.992;4.198;2022-10-30T13:07:40;12.60;;;3.28;;
38853;SDS011;24606;51.992;4.198;2022-10-30T13:12:48;6.97;;;3.45;;
38853;SDS011;24606;51.992;4.198;2022-10-30T13:17:55;8.18;;;2.60;;
38853;SDS011;24606;51.992;4.198;2022-10-30T13:23:00;6.18;;;3.00;;
38853;SDS011;24606;51.992;4.198;2022-10-30T13:28:12;11.80;;;5.07;;
38853;SDS011;24606;51.992;4.198;2022-10-30T13:33:24;6.40;;;2.92;;
38853;SDS011;24606;51.992;4.198;2022-10-30T13:38:35;7.80;;;2.92;;
38853;SDS011;24606;51.992;4.198;2022-10-30T13:43:46;12.60;;;5.13;;
38853;SDS011;24606;51.992;4.198;2022-10-30T13:48:59;7.38;;;3.45;;
38853;SDS011;24606;51.992;4.198;2022-10-30T13:54:13;14.00;;;3.55;;
38853;SDS011;24606;51.992;4.198;2022-10-30T13:59:33;7.57;;;3.70;;
38853;SDS011;24606;51.992;4.198;2022-10-30T14:04:51;7.88;;;4.03;;
38853;SDS011;24606;51.992;4.198;2022-10-30T14:10:01;6.93;;;3.78;;
38853;SDS011;24606;51.992;4.198;2022-10-30T14:15:13;10.52;;;3.13;;
38853;SDS011;24606;51.992;4.198;2022-10-30T14:20:24;10.43;;;3.63;;
38853;SDS011;24606;51.992;4.198;2022-10-30T14:25:27;8.50;;;2.85;;
38853;SDS011;24606;51.992;4.198;2022-10-30T14:30:29;13.57;;;3.70;;
38853;SDS011;24606;51.992;4.198;2022-10-30T14:35:39;10.73;;;3.33;;
38853;SDS011;24606;51.992;4.198;2022-10-30T14:40:43;13.93;;;4.78;;
38853;SDS011;24606;51.992;4.198;2022-10-30T14:45:54;9.57;;;2.92;;
38853;SDS011;24606;51.992;4.198;2022-10-30T14:51:04;8.63;;;2.97;;
38853;SDS011;24606;51.992;4.198;2022-10-30T14:56:18;10.80;;;2.65;;
38853;SDS011;24606;51.992;4.198;2022-10-30T15:01:28;10.40;;;2.80;;
38853;SDS011;24606;51.992;4.198;2022-10-30T15:06:35;9.35;;;3.10;;
38853;SDS011;24606;51.992;4.198;2022-10-30T15:17:30;37.70;;;11.23;;
38853;SDS011;24606;51.992;4.198;2022-10-30T15:22:35;36.72;;;9.70;;
38853;SDS011;24606;51.992;4.198;2022-10-30T15:27:37;34.05;;;9.50;;
38853;SDS011;24606;51.992;4.198;2022-10-30T15:32:42;29.95;;;9.63;;
38853;SDS011;24606;51.992;4.198;2022-10-30T15:38:02;32.55;;;9.35;;
38853;SDS011;24606;51.992;4.198;2022-10-30T15:43:06;25.90;;;8.30;;
38853;SDS011;24606;51.992;4.198;2022-10-30T15:48:15;23.52;;;8.60;;
38853;SDS011;24606;51.992;4.198;2022-10-30T15:53:23;25.75;;;7.80;;
38853;SDS011;24606;51.992;4.198;2022-10-30T15:58:30;23.02;;;5.82;;
38853;SDS011;24606;51.992;4.198;2022-10-30T16:03:34;19.95;;;6.20;;
38853;SDS011;24606;51.992;4.198;2022-10-30T16:08:42;13.73;;;5.40;;
38853;SDS011;24606;51.992;4.198;2022-10-30T16:13:45;14.25;;;5.95;;
38853;SDS011;24606;51.992;4.198;2022-10-30T16:18:48;13.27;;;4.38;;
38853;SDS011;24606;51.992;4.198;2022-10-30T16:23:52;11.10;;;4.00;;
38853;SDS011;24606;51.992;4.198;2022-10-30T16:29:00;10.55;;;2.95;;
38853;SDS011;24606;51.992;4.198;2022-10-30T16:34:09;11.77;;;4.38;;
38853;SDS011;24606;51.992;4.198;2022-10-30T16:39:17;10.82;;;3.70;;
38853;SDS011;24606;51.992;4.198;2022-10-30T16:44:24;9.82;;;3.00;;
38853;SDS011;24606;51.992;4.198;2022-10-30T16:49:28;7.13;;;2.65;;
38853;SDS011;24606;51.992;4.198;2022-10-30T16:54:34;10.23;;;3.10;;
38853;SDS011;24606;51.992;4.198;2022-10-30T16:59:46;8.80;;;3.28;;
38853;SDS011;24606;51.992;4.198;2022-10-30T17:04:50;11.23;;;3.05;;
38853;SDS011;24606;51.992;4.198;2022-10-30T17:09:56;7.43;;;1.25;;
38853;SDS011;24606;51.992;4.198;2022-10-30T17:15:01;5.78;;;1.52;;
38853;SDS011;24606;51.992;4.198;2022-10-30T17:20:12;5.07;;;1.02;;
38853;SDS011;24606;51.992;4.198;2022-10-30T17:25:29;12.07;;;2.70;;
38853;SDS011;24606;51.992;4.198;2022-10-30T17:30:36;4.47;;;1.38;;
38853;SDS011;24606;51.992;4.198;2022-10-30T17:35:41;4.63;;;0.90;;
38853;SDS011;24606;51.992;4.198;2022-10-30T17:40:44;6.10;;;1.27;;
38853;SDS011;24606;51.992;4.198;2022-10-30T17:45:46;5.65;;;1.17;;
38853;SDS011;24606;51.992;4.198;2022-10-30T17:50:48;3.55;;;0.95;;
38853;SDS011;24606;51.992;4.198;2022-10-30T17:55:52;6.03;;;0.93;;
38853;SDS011;24606;51.992;4.198;2022-10-30T18:00:58;2.90;;;0.77;;
38853;SDS011;24606;51.992;4.198;2022-10-30T18:06:00;5.93;;;0.77;;
38853;SDS011;24606;51.992;4.198;2022-10-30T18:11:07;5.72;;;1.00;;
38853;SDS011;24606;51.992;4.198;2022-10-30T18:16:11;4.88;;;1.50;;
38853;SDS011;24606;51.992;4.198;2022-10-30T18:21:14;5.35;;;1.33;;
38853;SDS011;24606;51.992;4.198;2022-10-30T18:26:19;2.85;;;0.85;;
38853;SDS011;24606;51.992;4.198;2022-10-30T18:31:23;10.65;;;1.25;;
38853;SDS011;24606;51.992;4.198;2022-10-30T18:36:25;3.23;;;0.97;;
38853;SDS011;24606;51.992;4.198;2022-10-30T18:41:30;5.30;;;1.48;;
38853;SDS011;24606;51.992;4.198;2022-10-30T18:46:34;4.43;;;1.17;;
38853;SDS011;24606;51.992;4.198;2022-10-30T18:51:35;3.20;;;1.07;;
38853;SDS011;24606;51.992;4.198;2022-10-30T18:56:39;3.93;;;1.33;;
38853;SDS011;24606;51.992;4.198;2022-10-30T19:01:41;1.98;;;0.70;;
38853;SDS011;24606;51.992;4.198;2022-10-30T19:06:42;4.20;;;0.70;;
38853;SDS011;24606;51.992;4.198;2022-10-30T19:11:46;3.20;;;0.70;;
38853;SDS011;24606;51.992;4.198;2022-10-30T19:16:48;4.88;;;1.00;;
38853;SDS011;24606;51.992;4.198;2022-10-30T19:21:49;2.50;;;1.38;;
38853;SDS011;24606;51.992;4.198;2022-10-30T19:26:53;3.30;;;1.20;;
38853;SDS011;24606;51.992;4.198;2022-10-30T19:31:55;4.72;;;0.80;;
38853;SDS011;24606;51.992;4.198;2022-10-30T19:36:56;3.95;;;1.23;;
38853;SDS011;24606;51.992;4.198;2022-10-30T19:42:00;3.78;;;0.90;;
38853;SDS011;24606;51.992;4.198;2022-10-30T19:47:02;3.92;;;0.93;;
38853;SDS011;24606;51.992;4.198;2022-10-30T19:52:03;5.30;;;1.08;;
38853;SDS011;24606;51.992;4.198;2022-10-30T19:57:08;2.35;;;0.70;;
38853;SDS011;24606;51.992;4.198;2022-10-30T20:02:13;3.58;;;1.02;;
38853;SDS011;24606;51.992;4.198;2022-10-30T20:07:15;4.30;;;0.70;;
38853;SDS011;24606;51.992;4.198;2022-10-30T20:12:19;2.92;;;0.75;;
38853;SDS011;24606;51.992;4.198;2022-10-30T20:17:20;4.88;;;1.27;;
38853;SDS011;24606;51.992;4.198;2022-10-30T20:22:22;2.88;;;0.95;;
38853;SDS011;24606;51.992;4.198;2022-10-30T20:27:26;1.63;;;0.60;;
38853;SDS011;24606;51.992;4.198;2022-10-30T20:32:27;6.32;;;0.80;;
38853;SDS011;24606;51.992;4.198;2022-10-30T20:37:29;4.43;;;0.60;;
38853;SDS011;24606;51.992;4.198;2022-10-30T20:47:34;1.50;;;0.50;;
38853;SDS011;24606;51.992;4.198;2022-10-30T20:52:36;4.82;;;1.10;;
38853;SDS011;24606;51.992;4.198;2022-10-30T20:57:39;7.25;;;1.20;;
38853;SDS011;24606;51.992;4.198;2022-10-30T21:02:41;2.38;;;0.95;;
38853;SDS011;24606;51.992;4.198;2022-10-30T21:07:43;2.53;;;0.90;;
38853;SDS011;24606;51.992;4.198;2022-10-30T21:12:47;9.77;;;0.88;;
38853;SDS011;24606;51.992;4.198;2022-10-30T21:17:49;6.43;;;0.60;;
38853;SDS011;24606;51.992;4.198;2022-10-30T21:22:50;4.97;;;0.95;;
38853;SDS011;24606;51.992;4.198;2022-10-30T21:27:55;6.80;;;0.93;;
38853;SDS011;24606;51.992;4.198;2022-10-30T21:32:57;6.38;;;1.13;;
38853;SDS011;24606;51.992;4.198;2022-10-30T21:38:00;3.13;;;0.73;;
38853;SDS011;24606;51.992;4.198;2022-10-30T21:48:05;4.22;;;0.50;;
38853;SDS011;24606;51.992;4.198;2022-10-30T21:53:07;1.10;;;0.43;;
38853;SDS011;24606;51.992;4.198;2022-10-30T21:58:10;3.38;;;0.60;;
38853;SDS011;24606;51.992;4.198;2022-10-30T22:03:12;1.55;;;0.60;;
38853;SDS011;24606;51.992;4.198;2022-10-30T22:13:18;5.50;;;0.75;;
38853;SDS011;24606;51.992;4.198;2022-10-30T22:18:20;5.93;;;1.27;;
38853;SDS011;24606;51.992;4.198;2022-10-30T22:23:22;1.92;;;0.73;;
38853;SDS011;24606;51.992;4.198;2022-10-30T22:28:26;1.83;;;0.70;;
38853;SDS011;24606;51.992;4.198;2022-10-30T22:33:29;3.42;;;1.02;;
38853;SDS011;24606;51.992;4.198;2022-10-30T22:38:31;3.78;;;0.82;;
38853;SDS011;24606;51.992;4.198;2022-10-30T22:43:34;4.28;;;1.00;;
38853;SDS011;24606;51.992;4.198;2022-10-30T22:48:36;2.30;;;0.60;;
38853;SDS011;24606;51.992;4.198;2022-10-30T22:53:39;2.67;;;1.25;;
38853;SDS011;24606;51.992;4.198;2022-10-30T23:03:44;4.88;;;0.70;;
38853;SDS011;24606;51.992;4.198;2022-10-30T23:08:46;5.20;;;1.08;;
38853;SDS011;24606;51.992;4.198;2022-10-30T23:13:49;4.90;;;0.95;;
38853;SDS011;24606;51.992;4.198;2022-10-30T23:18:52;3.38;;;0.88;;
38853;SDS011;24606;51.992;4.198;2022-10-30T23:23:55;3.70;;;0.70;;
38853;SDS011;24606;51.992;4.198;2022-10-30T23:28:59;2.35;;;0.82;;
38853;SDS011;24606;51.992;4.198;2022-10-30T23:34:03;3.25;;;0.55;;
38853;SDS011;24606;51.992;4.198;2022-10-30T23:39:07;2.40;;;0.70;;
38853;SDS011;24606;51.992;4.198;2022-10-30T23:44:12;10.85;;;0.90;;
38853;SDS011;24606;51.992;4.198;2022-10-30T23:49:15;1.58;;;0.50;;
38853;SDS011;24606;51.992;4.198;2022-10-30T23:54:16;5.70;;;1.08;;
38853;SDS011;24606;51.992;4.198;2022-10-30T23:59:19;1.50;;;0.68;;
